Time;durP1;ratioP1;P1;durP2;ratioP2;P2;SDS_P1;SDS_P2;PMS_P1;PMS_P2;Temp;Humidity;BMP_temperature;BMP_pressure;BME280_temperature;BME280_humidity;BME280_pressure;Samples;Min_cycle;Max_cycle;Signal;HPM_P1;HPM_P2
2022/11/01 00:01:07;;;;;;;;;;;14.40;99.90;;;;;;5053344;28;19968;-73
2022/11/01 00:03:32;;;;;;;;;;;14.30;99.90;;;;;;5036391;28;19930;-73
2022/11/01 00:05:58;;;;;;;;;;;14.20;99.90;;;;;;5053987;28;19925;-73
2022/11/01 00:08:23;;;;;;;;;;;14.20;99.90;;;;;;5053206;28;19964;-73
2022/11/01 00:10:49;;;;;;;;;;;14.10;99.90;;;;;;5125650;22;19927;-75
2022/11/01 00:13:14;;;;;;;;;;;14.20;99.90;;;;;;5101002;28;19925;-75
2022/11/01 00:15:40;;;;;;;;;;;14.20;99.90;;;;;;5092427;28;20453;-74
2022/11/01 00:18:05;;;;;;;;;;;14.20;99.90;;;;;;5094182;28;19920;-75
2022/11/01 00:20:31;;;;;;;;;;;14.30;99.90;;;;;;5097396;28;19923;-75
2022/11/01 00:22:56;;;;;;;;;;;14.20;99.90;;;;;;5076636;28;19920;-75
2022/11/01 00:25:22;;;;;;;;;;;14.30;99.90;;;;;;5092605;28;19929;-74
2022/11/01 00:27:47;;;;;;;;;;;14.40;99.90;;;;;;5094239;28;20007;-75
2022/11/01 00:30:13;;;;;;;;;;;14.50;99.90;;;;;;5094370;28;19927;-75
2022/11/01 00:32:38;;;;;;;;;;;14.60;99.90;;;;;;5094327;28;19924;-75
2022/11/01 00:35:04;;;;;;;;;;;15.50;99.90;;;;;;5090471;28;20348;-75
2022/11/01 00:37:29;;;;;;;;;;;14.50;99.90;;;;;;5092522;28;19924;-74
2022/11/01 00:39:55;;;;;;;;;;;14.40;99.90;;;;;;5093182;28;19920;-75
2022/11/01 00:42:20;;;;;;;;;;;14.30;99.90;;;;;;5092788;28;19920;-75
2022/11/01 00:44:46;;;;;;;;;;;14.30;99.90;;;;;;5091562;28;19920;-75
2022/11/01 00:47:11;;;;;;;;;;;14.40;99.90;;;;;;5092672;28;19927;-74
2022/11/01 00:49:37;;;;;;;;;;;14.60;99.90;;;;;;5092586;28;20015;-74
2022/11/01 00:52:02;;;;;;;;;;;14.60;99.90;;;;;;5085237;28;20400;-74
2022/11/01 00:54:28;;;;;;;;;;;14.30;99.90;;;;;;5072875;28;19920;-75
2022/11/01 00:56:53;;;;;;;;;;;14.30;99.90;;;;;;5072383;28;19966;-75
2022/11/01 00:59:19;;;;;;;;;;;14.50;99.90;;;;;;5072053;28;19924;-75
2022/11/01 01:01:45;;;;;;;;;;;14.70;99.90;;;;;;5072421;28;19935;-75
2022/11/01 01:04:10;;;;;;;;;;;14.40;99.90;;;;;;5071619;28;19924;-75
2022/11/01 01:06:36;;;;;;;;;;;14.50;99.90;;;;;;5072339;28;19990;-75
2022/11/01 01:09:01;;;;;;;;;;;14.90;99.90;;;;;;5056202;28;19921;-75
2022/11/01 01:11:27;;;;;;;;;;;14.60;99.90;;;;;;5071830;28;19931;-75
2022/11/01 01:13:52;;;;;;;;;;;14.50;99.90;;;;;;5071556;28;19927;-75
2022/11/01 01:16:18;;;;;;;;;;;14.50;99.90;;;;;;5073109;28;19974;-75
2022/11/01 01:18:43;;;;;;;;;;;14.60;99.90;;;;;;5071884;28;19928;-74
2022/11/01 01:21:09;;;;;;;;;;;14.60;99.90;;;;;;5071496;28;19924;-74
2022/11/01 01:23:34;;;;;;;;;;;14.90;99.90;;;;;;5073044;28;19920;-75
2022/11/01 01:26:06;;;;;;;;;;;14.70;99.90;;;;;;5071274;28;20412;-75
2022/11/01 01:28:31;;;;;;;;;;;14.50;99.90;;;;;;5054870;28;20400;-75
2022/11/01 01:30:57;;;;;;;;;;;14.60;99.90;;;;;;5070313;28;19921;-74
2022/11/01 01:33:22;;;;;;;;;;;15.20;99.90;;;;;;5071621;28;19932;-75
2022/11/01 01:35:48;;;;;;;;;;;14.70;99.90;;;;;;5070650;28;19920;-75
2022/11/01 01:38:13;;;;;;;;;;;14.60;99.90;;;;;;5071771;28;19920;-75
2022/11/01 01:40:39;;;;;;;;;;;14.30;99.90;;;;;;5071205;28;19928;-75
2022/11/01 01:43:04;;;;;;;;;;;14.50;99.90;;;;;;5072668;28;20354;-75
2022/11/01 01:45:32;;;;;;;;;;;14.50;99.90;;;;;;5072304;28;19953;-75
2022/11/01 01:48:00;;;;;;;;;;;14.90;99.90;;;;;;5071226;28;19921;-76
2022/11/01 01:50:29;;;;;;;;;;;14.50;99.90;;;;;;5071358;28;19928;-76
2022/11/01 01:53:07;;;;;;;;;;;14.60;99.90;;;;;;5054598;28;20061;-75
2022/11/01 01:55:38;;;;;;;;;;;14.60;99.90;;;;;;5070917;28;19921;-74
2022/11/01 01:58:04;;;;;;;;;;;14.50;99.90;;;;;;5072059;28;19927;-75
2022/11/01 02:00:30;;;;;;;;;;;15.30;99.90;;;;;;5072584;28;20014;-74
2022/11/01 02:02:55;;;;;;;;;;;14.50;99.90;;;;;;5072458;28;20007;-75
2022/11/01 02:05:27;;;;;;;;;;;14.60;99.90;;;;;;5069986;28;19921;-76
2022/11/01 02:07:53;;;;;;;;;;;14.60;99.90;;;;;;5060291;28;19924;-75
2022/11/01 02:10:19;;;;;;;;;;;14.40;99.90;;;;;;5090695;28;19981;-75
2022/11/01 02:12:46;;;;;;;;;;;14.40;99.90;;;;;;5091350;28;19928;-75
2022/11/01 02:15:12;;;;;;;;;;;14.60;99.90;;;;;;5088224;28;20022;-74
2022/11/01 02:17:45;;;;;;;;;;;14.60;99.90;;;;;;5074089;28;19928;-75
2022/11/01 02:20:19;;;;;;;;;;;14.60;99.90;;;;;;5092088;28;19920;-75
2022/11/01 02:22:54;;;;;;;;;;;14.70;99.90;;;;;;5072466;28;20403;-75
2022/11/01 02:25:38;;;;;;;;;;;14.70;99.90;;;;;;5090193;28;19924;-75
2022/11/01 02:28:12;;;;;;;;;;;14.60;99.90;;;;;;5091010;28;19967;-75
2022/11/01 02:30:42;;;;;;;;;;;14.60;99.90;;;;;;5091709;28;19920;-74
2022/11/01 02:33:19;;;;;;;;;;;14.80;99.90;;;;;;5061360;28;19924;-75
2022/11/01 02:36:01;;;;;;;;;;;14.70;99.90;;;;;;5073578;28;19924;-75
2022/11/01 02:38:35;;;;;;;;;;;14.80;99.90;;;;;;5092192;28;20398;-75
2022/11/01 02:41:06;;;;;;;;;;;14.90;99.90;;;;;;5091122;28;19928;-75
2022/11/01 02:43:50;;;;;;;;;;;14.60;99.90;;;;;;5095149;28;20462;-75
2022/11/01 02:49:01;;;;;;;;;;;14.60;99.90;;;;;;5093291;28;19931;-74
2022/11/01 02:51:27;;;;;;;;;;;14.70;99.90;;;;;;5096074;28;19927;-75
2022/11/01 02:53:52;;;;;;;;;;;14.90;99.90;;;;;;5095875;28;19920;-74
2022/11/01 02:56:18;;;;;;;;;;;14.70;99.90;;;;;;5077646;28;19920;-76
2022/11/01 02:58:47;;;;;;;;;;;14.80;99.90;;;;;;5094806;28;19928;-75
2022/11/01 03:01:16;;;;;;;;;;;15.10;99.90;;;;;;5095694;28;19926;-75
2022/11/01 03:03:44;;;;;;;;;;;15.90;99.90;;;;;;5095656;28;19920;-75
2022/11/01 03:06:24;;;;;;;;;;;15.50;99.90;;;;;;5094498;28;19963;-75
2022/11/01 03:08:53;;;;;;;;;;;14.80;99.90;;;;;;5094124;28;19924;-75
2022/11/01 03:11:19;;;;;;;;;;;15.10;99.90;;;;;;5095817;28;20435;-75
2022/11/01 03:14:03;;;;;;;;;;;14.80;99.90;;;;;;5095517;28;19943;-75
2022/11/01 03:16:48;;;;;;;;;;;15.10;99.90;;;;;;5094729;28;20447;-76
2022/11/01 03:19:22;;;;;;;;;;;15.00;99.90;;;;;;5077740;28;19978;-74
2022/11/01 03:21:54;;;;;;;;;;;14.90;99.90;;;;;;5093978;28;19926;-75
2022/11/01 03:24:25;;;;;;;;;;;15.20;99.90;;;;;;5095178;28;19930;-75
2022/11/01 03:27:10;;;;;;;;;;;15.00;99.90;;;;;;5095253;28;19973;-75
2022/11/01 03:29:36;;;;;;;;;;;15.20;99.90;;;;;;5077065;28;20305;-75
2022/11/01 03:32:03;;;;;;;;;;;15.30;99.90;;;;;;5095686;28;19946;-75
2022/11/01 03:34:29;;;;;;;;;;;14.90;99.90;;;;;;5094779;28;19920;-75
2022/11/01 03:36:58;;;;;;;;;;;14.90;99.90;;;;;;5092860;28;20019;-75
2022/11/01 03:39:25;;;;;;;;;;;14.90;99.90;;;;;;5074215;28;19927;-75
2022/11/01 03:41:54;;;;;;;;;;;15.10;99.90;;;;;;5094285;28;20399;-76
2022/11/01 03:44:20;;;;;;;;;;;15.10;99.90;;;;;;5094905;28;20470;-75
2022/11/01 03:46:45;;;;;;;;;;;15.90;99.90;;;;;;5095353;28;20015;-75
2022/11/01 03:49:15;;;;;;;;;;;15.10;99.90;;;;;;5093968;28;20010;-75
2022/11/01 03:51:40;;;;;;;;;;;15.00;99.90;;;;;;5094994;28;20381;-75
2022/11/01 03:54:09;;;;;;;;;;;15.80;99.90;;;;;;5090255;28;19927;-75
2022/11/01 03:56:36;;;;;;;;;;;15.20;99.90;;;;;;5093344;28;19920;-75
2022/11/01 03:59:01;;;;;;;;;;;15.00;99.90;;;;;;5093747;28;19920;-75
2022/11/01 04:01:27;;;;;;;;;;;15.30;99.90;;;;;;5094981;28;20382;-75
2022/11/01 04:03:52;;;;;;;;;;;16.10;99.90;;;;;;5093264;28;20018;-74
2022/11/01 04:06:18;;;;;;;;;;;15.00;99.90;;;;;;5093710;28;19927;-76
2022/11/01 04:08:43;;;;;;;;;;;15.40;99.90;;;;;;5094661;28;19927;-75
2022/11/01 04:11:09;;;;;;;;;;;15.30;99.90;;;;;;5092640;28;19971;-75
2022/11/01 04:13:34;;;;;;;;;;;15.30;99.90;;;;;;5093266;28;19924;-74
2022/11/01 04:21:30;;;;;;;;;;;15.40;99.90;;;;;;5094584;28;19920;-76
2022/11/01 04:23:55;;;;;;;;;;;15.60;99.90;;;;;;5092799;28;19927;-75
2022/11/01 04:26:21;;;;;;;;;;;15.70;99.90;;;;;;5094682;28;19920;-75
2022/11/01 04:28:56;;;;;;;;;;;15.50;99.90;;;;;;5091525;28;19920;-76
2022/11/01 04:31:26;;;;;;;;;;;15.50;99.90;;;;;;5093050;28;20369;-75
2022/11/01 04:33:51;;;;;;;;;;;15.60;99.90;;;;;;5093828;28;20015;-75
2022/11/01 04:36:17;;;;;;;;;;;15.40;99.90;;;;;;5092816;28;20021;-76
2022/11/01 04:38:42;;;;;;;;;;;15.60;99.90;;;;;;5092805;28;19920;-75
2022/11/01 04:41:08;;;;;;;;;;;15.40;99.90;;;;;;5092806;28;19924;-75
2022/11/01 04:43:33;;;;;;;;;;;15.70;99.90;;;;;;5074428;28;20276;-74
2022/11/01 04:45:59;;;;;;;;;;;15.80;99.90;;;;;;5091878;28;19930;-75
2022/11/01 04:48:26;;;;;;;;;;;15.80;99.90;;;;;;5092700;28;19920;-75
2022/11/01 04:50:52;;;;;;;;;;;15.50;99.90;;;;;;5093866;28;19927;-75
2022/11/01 04:53:17;;;;;;;;;;;16.70;99.90;;;;;;5093722;28;19924;-74
2022/11/01 04:55:43;;;;;;;;;;;15.60;99.90;;;;;;5075148;28;19927;-76
2022/11/01 04:58:09;;;;;;;;;;;15.50;99.90;;;;;;5093738;28;19970;-76
2022/11/01 05:00:35;;;;;;;;;;;15.70;99.90;;;;;;5090738;28;20390;-76
2022/11/01 05:03:05;;;;;;;;;;;15.60;99.90;;;;;;5092550;28;19927;-75
2022/11/01 05:05:31;;;;;;;;;;;15.40;99.90;;;;;;5093353;28;19921;-75
2022/11/01 05:07:58;;;;;;;;;;;15.30;99.90;;;;;;5093420;28;19927;-75
2022/11/01 05:10:23;;;;;;;;;;;16.60;99.90;;;;;;5092439;28;19927;-75
2022/11/01 05:12:49;;;;;;;;;;;16.90;99.90;;;;;;5092134;28;19924;-75
2022/11/01 05:15:14;;;;;;;;;;;15.80;99.90;;;;;;5084161;28;19928;-75
2022/11/01 05:17:40;;;;;;;;;;;15.70;99.90;;;;;;5083109;28;19920;-75
2022/11/01 05:20:06;;;;;;;;;;;15.70;99.90;;;;;;5092068;28;19920;-75
2022/11/01 05:22:32;;;;;;;;;;;15.80;99.90;;;;;;5091979;28;20282;-75
2022/11/01 05:24:57;;;;;;;;;;;15.50;99.90;;;;;;5092638;28;19927;-75
2022/11/01 05:27:23;;;;;;;;;;;15.60;99.90;;;;;;5092064;28;19920;-76
2022/11/01 05:29:48;;;;;;;;;;;15.50;99.90;;;;;;5091987;28;19920;-76
2022/11/01 05:32:15;;;;;;;;;;;15.40;99.90;;;;;;5091658;28;20015;-75
2022/11/01 05:34:40;;;;;;;;;;;15.40;99.90;;;;;;5089475;28;19924;-77
2022/11/01 05:37:06;;;;;;;;;;;16.00;99.90;;;;;;5075016;28;19969;-77
2022/11/01 05:39:31;;;;;;;;;;;15.40;99.90;;;;;;5092029;28;19963;-75
2022/11/01 05:41:56;;;;;;;;;;;16.30;99.90;;;;;;5093049;28;19920;-75
2022/11/01 05:44:22;;;;;;;;;;;15.50;99.90;;;;;;5090902;28;20412;-75
2022/11/01 05:46:47;;;;;;;;;;;15.80;99.90;;;;;;5091643;28;19924;-75
2022/11/01 05:49:13;;;;;;;;;;;15.30;99.90;;;;;;5091404;28;19974;-75
2022/11/01 05:51:38;;;;;;;;;;;16.00;99.90;;;;;;5091730;28;19924;-78
2022/11/01 05:54:04;;;;;;;;;;;15.90;99.90;;;;;;5092115;28;20323;-75
2022/11/01 05:56:29;;;;;;;;;;;15.20;99.90;;;;;;5091522;28;19973;-76
2022/11/01 05:58:55;;;;;;;;;;;15.20;99.90;;;;;;5088065;28;20000;-76
2022/11/01 06:01:20;;;;;;;;;;;15.00;99.90;;;;;;5074529;28;20408;-75
2022/11/01 06:03:48;;;;;;;;;;;15.20;99.90;;;;;;5074530;28;20301;-75
2022/11/01 06:06:14;;;;;;;;;;;15.10;99.90;;;;;;5069599;28;19935;-76
2022/11/01 06:08:39;;;;;;;;;;;14.90;99.90;;;;;;5082478;28;19928;-78
2022/11/01 06:11:05;;;;;;;;;;;14.90;99.90;;;;;;5107987;22;19928;-71
2022/11/01 06:13:31;;;;;;;;;;;14.60;99.90;;;;;;5080365;28;20353;-72
2022/11/01 06:16:00;;;;;;;;;;;14.70;99.90;;;;;;5077043;28;19920;-71
2022/11/01 06:18:26;;;;;;;;;;;14.90;99.90;;;;;;5098048;28;19963;-72
2022/11/01 06:20:51;;;;;;;;;;;14.70;99.90;;;;;;5082388;28;19945;-72
2022/11/01 06:23:17;;;;;;;;;;;14.90;99.90;;;;;;5053102;28;20374;-73
2022/11/01 06:25:43;;;;;;;;;;;14.70;99.90;;;;;;5044881;28;19920;-72
2022/11/01 06:28:08;;;;;;;;;;;14.80;99.90;;;;;;5070285;28;20390;-73
2022/11/01 06:30:34;;;;;;;;;;;14.60;99.90;;;;;;5072836;28;19924;-72
2022/11/01 06:33:00;;;;;;;;;;;14.70;99.90;;;;;;5071138;28;19924;-72
2022/11/01 06:35:29;;;;;;;;;;;14.50;99.90;;;;;;5071638;28;20385;-72
2022/11/01 06:37:59;;;;;;;;;;;14.30;99.90;;;;;;5072535;28;19928;-72
2022/11/01 06:40:25;;;;;;;;;;;14.80;99.90;;;;;;5069147;28;19921;-72
2022/11/01 06:42:51;;;;;;;;;;;14.50;99.90;;;;;;5056470;28;20339;-73
2022/11/01 06:45:16;;;;;;;;;;;14.70;99.90;;;;;;5050229;28;19928;-73
2022/11/01 06:47:45;;;;;;;;;;;14.60;99.90;;;;;;5052182;28;20268;-73
2022/11/01 06:50:10;;;;;;;;;;;14.10;99.90;;;;;;5034206;28;19921;-73
2022/11/01 06:52:36;;;;;;;;;;;14.10;99.90;;;;;;5050959;28;20295;-73
2022/11/01 06:55:01;;;;;;;;;;;14.10;99.90;;;;;;5051444;28;19979;-73
2022/11/01 06:57:30;;;;;;;;;;;14.30;99.90;;;;;;5055860;28;20443;-73
2022/11/01 06:59:58;;;;;;;;;;;14.20;99.90;;;;;;5065111;28;19921;-73
2022/11/01 07:02:24;;;;;;;;;;;14.00;99.90;;;;;;5039054;28;19940;-73
2022/11/01 07:04:50;;;;;;;;;;;14.20;99.90;;;;;;5051161;28;19924;-73
2022/11/01 07:07:16;;;;;;;;;;;14.20;99.90;;;;;;5054972;28;20316;-73
2022/11/01 07:09:41;;;;;;;;;;;14.30;99.90;;;;;;5053930;28;19920;-73
2022/11/01 07:12:07;;;;;;;;;;;14.30;99.90;;;;;;5055264;28;19975;-73
2022/11/01 07:14:32;;;;;;;;;;;14.30;99.90;;;;;;5053131;28;19953;-73
2022/11/01 07:16:58;;;;;;;;;;;14.40;99.90;;;;;;5046259;28;20061;-73
2022/11/01 07:19:23;;;;;;;;;;;14.30;99.90;;;;;;5052974;28;19924;-73
2022/11/01 07:21:49;;;;;;;;;;;14.20;99.90;;;;;;5032839;28;19931;-73
2022/11/01 07:24:14;;;;;;;;;;;14.30;99.90;;;;;;5049947;28;19924;-73
2022/11/01 07:26:40;;;;;;;;;;;14.30;99.90;;;;;;5049896;28;19977;-73
2022/11/01 07:29:05;;;;;;;;;;;14.20;99.90;;;;;;5050894;28;20306;-73
2022/11/01 07:31:32;;;;;;;;;;;14.50;99.90;;;;;;5055085;28;19959;-73
2022/11/01 07:33:58;;;;;;;;;;;14.40;99.90;;;;;;5050635;28;19997;-73
2022/11/01 07:36:24;;;;;;;;;;;14.30;99.90;;;;;;5056231;28;20465;-72
2022/11/01 07:38:49;;;;;;;;;;;14.50;99.90;;;;;;5052301;28;19920;-73
2022/11/01 07:41:14;;;;;;;;;;;14.40;99.90;;;;;;5064686;28;19975;-72
2022/11/01 07:43:40;;;;;;;;;;;14.40;99.90;;;;;;5062808;28;20015;-74
2022/11/01 07:46:06;;;;;;;;;;;14.50;99.90;;;;;;5058295;28;20330;-73
2022/11/01 07:48:32;;;;;;;;;;;14.50;99.90;;;;;;5062488;28;20294;-73
2022/11/01 07:50:57;;;;;;;;;;;14.50;99.90;;;;;;5064196;28;20327;-73
2022/11/01 07:53:23;;;;;;;;;;;14.50;99.90;;;;;;5073481;28;20036;-73
2022/11/01 07:55:48;;;;;;;;;;;14.70;99.90;;;;;;5062859;28;20305;-72
2022/11/01 07:58:14;;;;;;;;;;;14.60;99.90;;;;;;5062920;28;19929;-71
2022/11/01 08:00:41;;;;;;;;;;;14.60;99.90;;;;;;5052580;28;19921;-72
2022/11/01 08:03:08;;;;;;;;;;;14.60;99.90;;;;;;5074685;28;19920;-72
2022/11/01 08:05:34;;;;;;;;;;;14.90;99.90;;;;;;5074731;28;20409;-72
2022/11/01 08:08:00;;;;;;;;;;;14.60;99.90;;;;;;5066235;28;19927;-72
2022/11/01 08:10:26;;;;;;;;;;;14.50;99.90;;;;;;5052947;28;20287;-72
2022/11/01 08:12:51;;;;;;;;;;;14.80;99.90;;;;;;5052429;28;19925;-73
2022/11/01 08:15:17;;;;;;;;;;;14.80;99.90;;;;;;5057942;28;20003;-74
2022/11/01 08:17:42;;;;;;;;;;;14.50;99.90;;;;;;5064617;28;19920;-73
2022/11/01 08:20:08;;;;;;;;;;;14.90;99.90;;;;;;5051995;28;20007;-73
2022/11/01 08:22:37;;;;;;;;;;;14.80;99.90;;;;;;5064820;28;19947;-74
2022/11/01 08:25:02;;;;;;;;;;;14.70;99.90;;;;;;5072343;28;19924;-73
2022/11/01 08:27:28;;;;;;;;;;;14.60;99.90;;;;;;5062038;28;19920;-73
2022/11/01 08:29:53;;;;;;;;;;;14.50;99.90;;;;;;5053895;28;19994;-73
2022/11/01 08:32:20;;;;;;;;;;;14.70;99.90;;;;;;5052091;28;19932;-73
2022/11/01 08:34:46;;;;;;;;;;;14.70;99.90;;;;;;5051801;28;19924;-73
2022/11/01 08:37:11;;;;;;;;;;;14.70;99.90;;;;;;5052010;28;20660;-74
2022/11/01 08:39:37;;;;;;;;;;;14.60;99.90;;;;;;5056290;28;20532;-73
2022/11/01 08:42:04;;;;;;;;;;;14.80;99.90;;;;;;5058968;28;19921;-73
2022/11/01 08:44:30;;;;;;;;;;;14.70;99.90;;;;;;5055901;28;19921;-73
2022/11/01 08:46:59;;;;;;;;;;;14.80;99.90;;;;;;5087039;28;19946;-73
2022/11/01 08:49:25;;;;;;;;;;;14.80;99.90;;;;;;5095389;28;19909;-73
2022/11/01 08:51:50;;;;;;;;;;;14.50;99.90;;;;;;5074883;28;19932;-73
2022/11/01 08:54:16;;;;;;;;;;;14.60;99.90;;;;;;5071278;28;19920;-73
2022/11/01 08:56:41;;;;;;;;;;;14.80;99.90;;;;;;5057837;28;19921;-73
2022/11/01 08:59:07;;;;;;;;;;;14.70;99.90;;;;;;5065366;28;19920;-73
2022/11/01 09:01:33;;;;;;;;;;;14.80;99.90;;;;;;5060758;28;19974;-73
2022/11/01 09:04:00;;;;;;;;;;;15.00;99.90;;;;;;5033848;28;20302;-73
2022/11/01 09:06:26;;;;;;;;;;;15.00;99.90;;;;;;5057544;28;19925;-74
2022/11/01 09:08:52;;;;;;;;;;;15.00;99.90;;;;;;5058755;28;19944;-73
2022/11/01 09:11:18;;;;;;;;;;;14.90;99.90;;;;;;5057650;28;19971;-73
2022/11/01 09:13:43;;;;;;;;;;;15.10;99.90;;;;;;5055082;28;20417;-73
2022/11/01 09:16:09;;;;;;;;;;;15.00;99.90;;;;;;5053991;28;19920;-74
2022/11/01 09:18:34;;;;;;;;;;;14.90;99.90;;;;;;5059462;28;19942;-73
2022/11/01 09:21:00;;;;;;;;;;;15.00;99.90;;;;;;5056404;28;19924;-73
2022/11/01 09:23:26;;;;;;;;;;;15.20;99.90;;;;;;5053616;28;19920;-73
2022/11/01 09:25:51;;;;;;;;;;;15.10;99.90;;;;;;5059395;28;20066;-73
2022/11/01 09:28:17;;;;;;;;;;;15.20;99.90;;;;;;5064340;28;19921;-74
2022/11/01 09:30:42;;;;;;;;;;;15.10;99.90;;;;;;5052287;28;19973;-74
2022/11/01 09:33:08;;;;;;;;;;;15.20;99.90;;;;;;5042673;28;20385;-74
2022/11/01 09:35:33;;;;;;;;;;;15.30;99.90;;;;;;5070864;28;19929;-73
2022/11/01 09:38:00;;;;;;;;;;;15.20;99.90;;;;;;5072023;28;20066;-73
2022/11/01 09:40:27;;;;;;;;;;;15.20;99.90;;;;;;5070361;28;19928;-73
2022/11/01 09:42:52;;;;;;;;;;;16.40;99.90;;;;;;5072456;28;19920;-75
2022/11/01 09:45:19;;;;;;;;;;;15.70;99.90;;;;;;5039791;28;19927;-73
2022/11/01 09:47:47;;;;;;;;;;;15.80;99.90;;;;;;5067796;28;19945;-73
2022/11/01 09:50:21;;;;;;;;;;;16.30;99.90;;;;;;5071844;28;19924;-73
2022/11/01 09:52:48;;;;;;;;;;;15.30;99.90;;;;;;5069595;28;19947;-73
2022/11/01 09:55:14;;;;;;;;;;;15.50;99.90;;;;;;5071737;28;19920;-73
2022/11/01 09:57:45;;;;;;;;;;;15.40;99.90;;;;;;5092374;28;19920;-73
2022/11/01 10:00:12;;;;;;;;;;;15.50;99.90;;;;;;5065872;28;19921;-73
2022/11/01 10:02:53;;;;;;;;;;;15.50;99.90;;;;;;5071153;28;20402;-73
2022/11/01 10:05:38;;;;;;;;;;;15.40;99.90;;;;;;5070489;28;19927;-73
2022/11/01 10:08:26;;;;;;;;;;;15.30;99.90;;;;;;5057131;28;19925;-72
2022/11/01 10:11:00;;;;;;;;;;;15.40;99.90;;;;;;5058986;28;19920;-74
2022/11/01 10:13:26;;;;;;;;;;;15.50;99.90;;;;;;5057907;28;19939;-73
2022/11/01 10:15:58;;;;;;;;;;;15.80;99.90;;;;;;5052959;28;19921;-73
2022/11/01 10:18:28;;;;;;;;;;;15.60;99.90;;;;;;5052037;28;19982;-73
2022/11/01 10:20:58;;;;;;;;;;;15.60;99.90;;;;;;5057480;28;19931;-72
2022/11/01 10:23:36;;;;;;;;;;;15.60;99.90;;;;;;5071212;28;19931;-73
2022/11/01 10:26:01;;;;;;;;;;;15.60;99.90;;;;;;5071784;28;19920;-73
2022/11/01 10:28:27;;;;;;;;;;;15.40;99.90;;;;;;5070581;28;20331;-73
2022/11/01 10:30:54;;;;;;;;;;;15.60;99.90;;;;;;5050661;28;19921;-73
2022/11/01 10:33:28;;;;;;;;;;;16.70;99.90;;;;;;5057029;28;20015;-73
2022/11/01 10:36:01;;;;;;;;;;;15.70;99.90;;;;;;5068721;28;19931;-73
2022/11/01 10:38:38;;;;;;;;;;;15.60;99.90;;;;;;5052243;28;19982;-73
2022/11/01 10:41:20;;;;;;;;;;;15.80;99.90;;;;;;5050313;28;19920;-73
2022/11/01 10:43:48;;;;;;;;;;;15.60;99.90;;;;;;5051557;28;19946;-73
2022/11/01 10:46:19;;;;;;;;;;;15.50;99.90;;;;;;5049757;28;19967;-73
2022/11/01 10:48:46;;;;;;;;;;;15.30;99.90;;;;;;5053930;28;19970;-73
2022/11/01 10:51:13;;;;;;;;;;;15.40;99.90;;;;;;5070845;28;20175;-73
2022/11/01 10:53:42;;;;;;;;;;;15.30;99.90;;;;;;5072167;28;19970;-74
2022/11/01 10:56:11;;;;;;;;;;;15.50;99.90;;;;;;5077083;28;19965;-73
2022/11/01 10:58:36;;;;;;;;;;;15.40;99.90;;;;;;5056760;28;20275;-73
2022/11/01 11:01:04;;;;;;;;;;;15.20;99.90;;;;;;5058488;28;19932;-73
2022/11/01 11:03:30;;;;;;;;;;;15.50;99.90;;;;;;5056660;28;19920;-73
2022/11/01 11:05:58;;;;;;;;;;;15.60;99.90;;;;;;5062322;28;20298;-70
2022/11/01 11:08:24;;;;;;;;;;;15.50;99.90;;;;;;5065126;28;19921;-71
2022/11/01 11:10:49;;;;;;;;;;;15.50;99.90;;;;;;5071466;28;19925;-72
2022/11/01 11:13:18;;;;;;;;;;;16.10;99.90;;;;;;5071540;28;19925;-74
2022/11/01 11:15:50;;;;;;;;;;;15.40;99.90;;;;;;5069380;28;20123;-74
2022/11/01 11:18:23;;;;;;;;;;;15.70;99.90;;;;;;5040439;28;19921;-74
2022/11/01 11:20:49;;;;;;;;;;;15.50;99.90;;;;;;5054898;28;19928;-74
2022/11/01 11:23:17;;;;;;;;;;;15.80;99.90;;;;;;5056086;28;19921;-74
2022/11/01 11:25:44;;;;;;;;;;;16.60;99.90;;;;;;5055199;28;19927;-74
2022/11/01 11:28:30;;;;;;;;;;;16.50;99.90;;;;;;5054752;28;20280;-74
2022/11/01 11:30:57;;;;;;;;;;;15.90;99.90;;;;;;5053227;28;19925;-72
2022/11/01 11:33:22;;;;;;;;;;;15.80;99.90;;;;;;5053697;28;20310;-72
2022/11/01 11:35:56;;;;;;;;;;;15.80;99.90;;;;;;5052996;28;19920;-72
2022/11/01 11:38:40;;;;;;;;;;;15.90;99.90;;;;;;5043195;28;19986;-72
2022/11/01 11:41:07;;;;;;;;;;;15.90;99.90;;;;;;5073834;28;20007;-72
2022/11/01 11:43:36;;;;;;;;;;;16.00;99.90;;;;;;5053613;28;20013;-72
2022/11/01 11:46:11;;;;;;;;;;;15.80;99.90;;;;;;5066883;28;19921;-73
2022/11/01 11:48:48;;;;;;;;;;;16.00;99.90;;;;;;5064261;28;19920;-73
2022/11/01 11:51:14;;;;;;;;;;;16.30;99.90;;;;;;5073481;28;19931;-73
2022/11/01 11:53:40;;;;;;;;;;;16.10;99.90;;;;;;5067469;28;20306;-73
2022/11/01 11:56:07;;;;;;;;;;;16.20;99.90;;;;;;5068795;28;19920;-73
2022/11/01 11:58:49;;;;;;;;;;;16.00;99.90;;;;;;5054570;28;20331;-73
2022/11/01 12:01:19;;;;;;;;;;;16.30;99.90;;;;;;5059439;28;20310;-73
2022/11/01 12:03:56;;;;;;;;;;;16.30;99.90;;;;;;5066800;28;20349;-73
2022/11/01 12:06:22;;;;;;;;;;;16.20;99.90;;;;;;5056163;28;19925;-73
2022/11/01 12:08:50;;;;;;;;;;;16.30;99.90;;;;;;5061986;28;19931;-72
2022/11/01 12:11:16;;;;;;;;;;;16.20;99.90;;;;;;5046488;23;20392;-76
2022/11/01 12:13:58;;;;;;;;;;;16.40;99.90;;;;;;5019503;28;19936;-76
2022/11/01 12:16:23;;;;;;;;;;;17.30;99.90;;;;;;5045339;28;19921;-75
2022/11/01 12:18:51;;;;;;;;;;;16.90;99.90;;;;;;5035314;28;19928;-74
2022/11/01 12:21:21;;;;;;;;;;;17.40;99.90;;;;;;5023706;28;19968;-75
2022/11/01 12:23:48;;;;;;;;;;;16.30;99.90;;;;;;5028347;28;20204;-75
2022/11/01 12:26:15;;;;;;;;;;;16.30;99.90;;;;;;5013370;28;19944;-78
2022/11/01 12:28:46;;;;;;;;;;;16.80;99.90;;;;;;5019799;28;19936;-75
2022/11/01 12:31:18;;;;;;;;;;;16.00;99.90;;;;;;5031245;28;19928;-75
2022/11/01 12:33:50;;;;;;;;;;;16.10;99.90;;;;;;5032276;28;19934;-74
2022/11/01 12:36:17;;;;;;;;;;;16.20;99.90;;;;;;5033950;28;20367;-75
2022/11/01 12:38:46;;;;;;;;;;;17.40;99.90;;;;;;5032237;28;19933;-76
2022/11/01 12:41:11;;;;;;;;;;;16.10;99.90;;;;;;5033786;28;19925;-75
2022/11/01 12:43:56;;;;;;;;;;;17.00;99.90;;;;;;5032638;28;19948;-76
2022/11/01 12:46:26;;;;;;;;;;;16.40;99.90;;;;;;5032227;28;20387;-76
2022/11/01 12:48:55;;;;;;;;;;;17.00;99.90;;;;;;5032216;28;19922;-76
2022/11/01 12:51:20;;;;;;;;;;;16.80;99.90;;;;;;5032918;28;19928;-75
2022/11/01 12:53:54;;;;;;;;;;;16.60;99.90;;;;;;5031789;28;19929;-76
2022/11/01 12:56:19;;;;;;;;;;;16.30;99.90;;;;;;5023681;28;19929;-75
2022/11/01 12:58:45;;;;;;;;;;;16.30;99.90;;;;;;5028493;28;19921;-76
2022/11/01 13:01:31;;;;;;;;;;;17.70;99.90;;;;;;5021097;28;19972;-74
2022/11/01 13:04:03;;;;;;;;;;;16.40;99.90;;;;;;5032296;28;19929;-74
2022/11/01 13:06:42;;;;;;;;;;;16.40;99.90;;;;;;5032794;28;19921;-75
2022/11/01 13:09:20;;;;;;;;;;;16.40;99.90;;;;;;5033305;28;19928;-76
2022/11/01 13:11:49;;;;;;;;;;;16.30;99.90;;;;;;5031625;28;19920;-75
2022/11/01 13:14:24;;;;;;;;;;;17.30;99.90;;;;;;5014461;28;19921;-74
2022/11/01 13:16:53;;;;;;;;;;;16.50;99.90;;;;;;5031662;28;20402;-75
2022/11/01 13:19:24;;;;;;;;;;;16.60;99.90;;;;;;5031358;28;19967;-74
2022/11/01 13:21:49;;;;;;;;;;;16.60;99.90;;;;;;5032917;28;19925;-75
2022/11/01 13:24:29;;;;;;;;;;;16.30;99.90;;;;;;5032033;28;19928;-74
2022/11/01 13:27:14;;;;;;;;;;;16.70;99.90;;;;;;5013866;28;19921;-77
2022/11/01 13:29:48;;;;;;;;;;;16.40;99.90;;;;;;5017679;28;20371;-77
2022/11/01 13:32:27;;;;;;;;;;;16.70;99.90;;;;;;5011873;28;20311;-76
2022/11/01 13:35:06;;;;;;;;;;;16.50;99.90;;;;;;5010859;28;19922;-76
2022/11/01 13:37:35;;;;;;;;;;;16.40;99.90;;;;;;5013157;28;19926;-76
2022/11/01 13:40:06;;;;;;;;;;;16.80;99.90;;;;;;5011535;28;19972;-75
2022/11/01 13:42:43;;;;;;;;;;;16.60;99.90;;;;;;5012559;28;19928;-76
2022/11/01 13:45:11;;;;;;;;;;;16.40;99.90;;;;;;5010879;28;19931;-76
2022/11/01 13:47:46;;;;;;;;;;;16.60;99.90;;;;;;5011585;28;19926;-75
2022/11/01 13:50:15;;;;;;;;;;;16.70;99.90;;;;;;5018765;28;19921;-75
2022/11/01 13:52:43;;;;;;;;;;;16.50;99.90;;;;;;5030368;28;19958;-74
2022/11/01 13:55:12;;;;;;;;;;;16.70;99.90;;;;;;5046427;28;19929;-75
2022/11/01 13:57:39;;;;;;;;;;;16.60;99.90;;;;;;5031716;28;19968;-74
2022/11/01 14:00:08;;;;;;;;;;;16.40;99.90;;;;;;5008640;28;19929;-75
2022/11/01 14:02:43;;;;;;;;;;;16.50;99.90;;;;;;5023449;28;19928;-75
2022/11/01 14:05:10;;;;;;;;;;;16.50;99.90;;;;;;5023852;28;20036;-74
2022/11/01 14:07:35;;;;;;;;;;;16.70;99.90;;;;;;5014040;28;19971;-74
2022/11/01 14:10:09;;;;;;;;;;;16.30;99.90;;;;;;5018153;28;19969;-74
2022/11/01 14:12:39;;;;;;;;;;;16.30;99.90;;;;;;5031089;28;20349;-74
2022/11/01 14:15:07;;;;;;;;;;;16.20;99.90;;;;;;5031337;28;20457;-73
2022/11/01 14:17:33;;;;;;;;;;;16.30;99.90;;;;;;5030676;28;19921;-73
2022/11/01 14:19:58;;;;;;;;;;;16.30;99.90;;;;;;5029295;28;19930;-73
2022/11/01 14:22:23;;;;;;;;;;;16.90;99.90;;;;;;5030838;28;19921;-73
2022/11/01 14:24:57;;;;;;;;;;;16.70;99.90;;;;;;5029986;28;19944;-73
2022/11/01 14:27:32;;;;;;;;;;;16.10;99.90;;;;;;5030287;28;20008;-73
2022/11/01 14:29:58;;;;;;;;;;;16.20;99.90;;;;;;5031166;28;19944;-74